ROKR(METAR)
08/23 16:00
ROKR 230700Z 11017KT 9999 FEW013 FEWXXX 30/27 Q1009 RMK A2979=
戻る
トップページへ戻る
IMOC Co,.Ltd.